Time;durP1;ratioP1;P1;durP2;ratioP2;P2;SDS_P1;SDS_P2;PMS_P1;PMS_P2;Temp;Humidity;BMP_temperature;BMP_pressure;BME280_temperature;BME280_humidity;BME280_pressure;Samples;Min_cycle;Max_cycle;Signal;HPM_P1;HPM_P2
2021/12/23 00:01:50;;;;;;;31.10;18.08;;;;;;;-144.19;100.00;78847.47;5093894;28;20429;-85
2021/12/23 00:04:17;;;;;;;29.60;17.65;;;;;;;-144.19;100.00;78855.34;5056244;28;20053;-84
2021/12/23 00:06:46;;;;;;;29.38;18.13;;;;;;;-144.19;100.00;78855.34;5057027;28;20045;-85
2021/12/23 00:09:13;;;;;;;33.80;19.23;;;;;;;-144.19;100.00;78845.50;5057071;28;20064;-85
2021/12/23 00:11:39;;;;;;;20.00;12.30;;;;;;;-144.19;100.00;78843.53;5057747;28;20071;-85
2021/12/23 00:14:08;;;;;;;27.67;17.33;;;;;;;-144.19;100.00;78839.59;5057325;28;20131;-87
2021/12/23 00:16:43;;;;;;;28.00;17.35;;;;;;;-144.19;100.00;78829.75;5057082;28;20052;-85
2021/12/23 00:24:39;;;;;;;26.00;16.67;;;;;;;-144.19;100.00;78823.84;5081982;28;20391;-83
2021/12/23 00:27:07;;;;;;;24.83;15.95;;;;;;;-144.19;100.00;78812.03;5077384;28;20049;-85
2021/12/23 00:29:34;;;;;;;28.98;17.00;;;;;;;-144.19;100.00;78815.97;5077188;28;20044;-85
2021/12/23 00:32:04;;;;;;;;;;;;;;;-144.19;100.00;78804.16;5073971;28;20080;-84
2021/12/23 00:34:30;;;;;;;28.27;15.98;;;;;;;-144.19;100.00;78800.22;5074989;28;20117;-84
2021/12/23 00:36:58;;;;;;;27.63;17.27;;;;;;;-144.19;100.00;78784.44;5070937;28;20423;-85
2021/12/23 00:39:26;;;;;;;25.55;16.35;;;;;;;-144.19;100.00;78780.50;5051356;28;20530;-81
2021/12/23 00:41:54;;;;;;;28.13;16.98;;;;;;;-144.19;100.00;78772.63;5051534;28;20061;-82
2021/12/23 00:44:21;;;;;;;26.00;15.95;;;;;;;-144.19;100.00;78764.75;5052325;28;20057;-83
2021/12/23 00:46:47;;;;;;;27.45;17.25;;;;;;;-144.19;100.00;78766.72;5050910;28;20052;-84
2021/12/23 00:49:14;;;;;;;28.50;16.30;;;;;;;-144.19;100.00;78756.88;5050959;28;20049;-82
2021/12/23 00:51:40;;;;;;;25.95;16.42;;;;;;;-144.19;100.00;78752.94;5052717;28;20060;-83
2021/12/23 00:54:06;;;;;;;24.58;16.65;;;;;;;-144.19;100.00;78747.03;5052692;28;20049;-84
2021/12/23 00:56:35;;;;;;;26.50;16.88;;;;;;;-144.19;100.00;78750.97;5071287;28;20116;-82
2021/12/23 00:59:10;;;;;;;25.60;16.80;;;;;;;-144.19;100.00;78749.00;5075712;28;20059;-83
2021/12/23 01:01:37;;;;;;;29.27;16.92;;;;;;;-144.19;100.00;78756.88;5076664;28;20052;-83
2021/12/23 01:04:04;;;;;;;25.85;16.30;;;;;;;-144.19;100.00;78752.94;5076169;28;20430;-86
2021/12/23 01:06:30;;;;;;;28.20;17.15;;;;;;;-144.19;100.00;78741.13;5075008;28;20053;-84
2021/12/23 01:08:57;;;;;;;27.05;16.27;;;;;;;-144.19;100.00;78737.19;5075321;28;20525;-85
2021/12/23 01:11:24;;;;;;;26.60;16.02;;;;;;;-144.19;100.00;78723.41;5073645;28;20055;-84
2021/12/23 01:14:03;;;;;;;24.88;15.68;;;;;;;-144.19;100.00;78725.38;5075231;28;20052;-83
2021/12/23 01:16:48;;;;;;;28.98;16.20;;;;;;;-144.19;100.00;78709.63;5074053;28;20048;-85
2021/12/23 01:19:18;;;;;;;24.95;14.45;;;;;;;-144.19;100.00;78713.56;5074563;28;20044;-83
2021/12/23 01:21:45;;;;;;;24.63;15.48;;;;;;;-144.19;100.00;78707.66;5070810;28;20051;-85
2021/12/23 01:24:11;;;;;;;22.73;15.27;;;;;;;-144.19;100.00;78701.72;5078870;28;20070;-84
2021/12/23 01:26:38;;;;;;;25.83;16.30;;;;;;;-144.19;100.00;78691.88;5073594;28;20051;-84
2021/12/23 01:29:07;;;;;;;23.92;16.17;;;;;;;-144.19;100.00;78685.97;5073926;28;20507;-84
2021/12/23 01:31:37;;;;;;;25.38;15.75;;;;;;;-144.19;100.00;78689.91;5074266;28;20091;-81
2021/12/23 01:34:04;;;;;;;25.55;16.08;;;;;;;-144.19;100.00;78689.91;5073502;28;20087;-83
2021/12/23 01:36:30;;;;;;;;;;;;;;;-144.19;100.00;78703.72;5094793;28;20544;-84
2021/12/23 01:38:57;;;;;;;23.77;15.05;;;;;;;-144.19;100.00;78697.78;5096149;28;19920;-84
2021/12/23 01:41:26;;;;;;;27.52;16.42;;;;;;;-144.19;100.00;78691.88;5095967;28;20149;-84
2021/12/23 01:43:52;;;;;;;25.83;16.42;;;;;;;-144.19;100.00;78701.72;5089773;28;20062;-84
2021/12/23 01:46:21;;;;;;;28.58;16.83;;;;;;;-144.19;100.00;78697.78;5053158;28;20499;-84
2021/12/23 01:48:49;;;;;;;26.33;16.05;;;;;;;-144.19;100.00;78687.94;5053903;28;20049;-84
2021/12/23 01:51:15;;;;;;;28.13;17.58;;;;;;;-144.19;100.00;78685.97;5054207;28;20056;-84
2021/12/23 01:53:42;;;;;;;25.60;15.88;;;;;;;-144.19;100.00;78682.03;5053770;28;20045;-84
2021/12/23 01:56:09;;;;;;;25.63;16.65;;;;;;;-144.19;100.00;78674.16;5068200;28;20049;-85
2021/12/23 01:58:37;;;;;;;23.58;16.80;;;;;;;-144.19;100.00;78672.19;5074315;28;20508;-83
2021/12/23 02:01:05;;;;;;;27.27;16.50;;;;;;;-144.19;100.00;78674.16;5072508;28;20680;-84
2021/12/23 02:03:32;;;;;;;26.90;16.33;;;;;;;-144.19;100.00;78664.31;5073723;28;20182;-84
2021/12/23 02:05:58;;;;;;;25.92;16.52;;;;;;;-144.19;100.00;78656.44;5073320;28;20048;-85
2021/12/23 02:08:34;;;;;;;26.45;15.68;;;;;;;-144.19;100.00;78642.66;5074836;28;20044;-86
2021/12/23 02:11:02;;;;;;;24.52;15.50;;;;;;;-144.19;100.00;78634.78;5088431;28;20067;-85
2021/12/23 02:13:29;;;;;;;26.15;15.95;;;;;;;-144.19;100.00;78622.97;5091094;28;20446;-83
2021/12/23 02:15:56;;;;;;;26.90;16.38;;;;;;;-144.19;100.00;78622.97;5087796;28;20052;-82
2021/12/23 02:18:22;;;;;;;25.98;15.45;;;;;;;-144.19;100.00;78617.06;5082066;28;20055;-84
2021/12/23 02:20:49;;;;;;;24.42;15.32;;;;;;;-144.19;100.00;78615.09;5082734;28;20399;-85
2021/12/23 02:23:16;;;;;;;22.98;15.75;;;;;;;-144.19;100.00;78605.22;5073165;28;20055;-84
2021/12/23 02:25:42;;;;;;;23.60;15.02;;;;;;;-144.19;100.00;78597.34;5089968;28;20048;-85
2021/12/23 02:28:09;;;;;;;23.48;14.88;;;;;;;-144.19;100.00;78595.38;5092762;28;20040;-85
2021/12/23 02:30:38;;;;;;;25.15;15.68;;;;;;;-144.19;100.00;78597.34;5093943;28;20056;-86
2021/12/23 02:33:07;;;;;;;23.77;14.43;;;;;;;-144.19;100.00;78585.53;5093898;28;20079;-84
2021/12/23 02:35:35;;;;;;;23.25;15.20;;;;;;;-144.19;100.00;78583.56;5077546;28;20052;-85
2021/12/23 02:38:02;;;;;;;22.45;14.05;;;;;;;-144.19;100.00;78575.69;5054590;28;20048;-87
2021/12/23 02:40:40;;;;;;;23.70;15.23;;;;;;;-144.19;100.00;78571.75;5053846;28;20060;-83
2021/12/23 02:43:22;;;;;;;22.83;14.82;;;;;;;-144.19;100.00;78563.88;5053053;28;20052;-82
2021/12/23 02:45:52;;;;;;;24.00;14.15;;;;;;;-144.19;100.00;78571.75;5053672;28;20049;-83
2021/12/23 02:48:32;;;;;;;24.13;14.35;;;;;;;-144.19;100.00;78552.06;5052631;28;20510;-83
2021/12/23 02:51:00;;;;;;;22.17;14.45;;;;;;;-144.19;100.00;78559.94;5052658;28;20057;-82
2021/12/23 02:53:27;;;;;;;23.13;14.75;;;;;;;-144.19;100.00;78561.91;5054824;28;20057;-82
2021/12/23 02:55:55;;;;;;;23.63;13.82;;;;;;;-144.19;100.00;78556.00;5064327;28;20486;-83
2021/12/23 02:58:22;;;;;;;27.83;15.90;;;;;;;-144.19;100.00;78559.94;5076321;28;20054;-80
2021/12/23 03:00:51;;;;;;;;;;;;;;;-144.19;100.00;78557.97;5094921;28;20032;-83
2021/12/23 03:03:19;;;;;;;19.77;13.05;;;;;;;-144.19;100.00;78546.16;5081686;28;19943;-88
2021/12/23 03:05:51;;;;;;;23.23;13.00;;;;;;;-144.19;100.00;78546.16;5078325;28;20063;-84
2021/12/23 03:08:40;;;;;;;20.33;13.40;;;;;;;-144.19;100.00;78544.19;5079691;28;20048;-84
2021/12/23 03:11:09;;;;;;;22.98;13.77;;;;;;;-144.19;100.00;78542.22;5073613;28;20071;-85
2021/12/23 03:13:37;;;;;;;25.02;14.10;;;;;;;-144.19;100.00;78530.41;5057143;28;20049;-86
2021/12/23 03:16:04;;;;;;;23.73;14.45;;;;;;;-144.19;100.00;78520.56;5057183;28;20053;-85
2021/12/23 03:18:31;;;;;;;23.98;14.43;;;;;;;-144.19;100.00;78516.59;5072446;28;20087;-84
2021/12/23 03:20:59;;;;;;;20.35;13.43;;;;;;;-144.19;100.00;78512.66;5056954;28;20056;-84
2021/12/23 03:23:26;;;;;;;25.75;14.68;;;;;;;-144.19;100.00;78508.72;5079886;28;20051;-83
2021/12/23 03:25:52;;;;;;;24.92;14.52;;;;;;;-144.19;100.00;78508.72;5073721;28;20063;-83
2021/12/23 03:28:19;;;;;;;24.70;15.00;;;;;;;-144.19;100.00;78504.78;5055588;28;20045;-82
2021/12/23 03:30:46;;;;;;;25.00;14.45;;;;;;;-144.19;100.00;78506.75;5054704;28;20052;-83
2021/12/23 03:33:13;;;;;;;23.38;14.27;;;;;;;-144.19;100.00;78500.84;5055344;28;20517;-86
2021/12/23 03:35:39;;;;;;;23.52;14.75;;;;;;;-144.19;100.00;78487.06;5077579;28;20074;-84
2021/12/23 03:38:07;;;;;;;25.45;14.23;;;;;;;-144.19;100.00;78473.28;5095147;28;20421;-85
2021/12/23 03:40:33;;;;;;;22.33;14.45;;;;;;;-144.19;100.00;78469.34;5094198;28;20497;-85
2021/12/23 03:43:00;;;;;;;25.35;14.98;;;;;;;-144.19;100.00;78473.28;5088572;28;20056;-85
2021/12/23 03:45:26;;;;;;;27.33;15.02;;;;;;;-144.19;100.00;78471.31;5054910;28;20060;-86
2021/12/23 03:47:53;;;;;;;23.58;15.18;;;;;;;-144.19;100.00;78465.41;5053264;28;20045;-84
2021/12/23 03:50:22;;;;;;;25.13;15.00;;;;;;;-144.19;100.00;78469.34;5054087;28;20053;-87
2021/12/23 03:52:49;;;;;;;22.73;14.48;;;;;;;-144.19;100.00;78465.41;5053628;28;20506;-85
2021/12/23 03:55:16;;;;;;;22.65;13.88;;;;;;;-144.19;100.00;78455.56;5061315;28;20044;-84
2021/12/23 03:57:43;;;;;;;25.55;15.25;;;;;;;-144.19;100.00;78461.47;5072456;28;20057;-85
2021/12/23 04:00:13;;;;;;;22.70;14.93;;;;;;;-144.19;100.00;78437.84;5069166;28;20057;-86
2021/12/23 04:02:39;;;;;;;25.70;14.57;;;;;;;-144.19;100.00;78429.97;5052929;28;20059;-85
2021/12/23 04:05:07;;;;;;;24.15;14.07;;;;;;;-144.19;100.00;78429.97;5052965;28;20102;-85
2021/12/23 04:07:35;;;;;;;23.15;14.10;;;;;;;-144.19;100.00;78402.38;5054194;28;20057;-85
2021/12/23 04:10:03;;;;;;;22.70;13.98;;;;;;;-144.19;100.00;78392.53;5052772;28;20052;-85
2021/12/23 04:12:30;;;;;;;24.90;13.45;;;;;;;-144.19;100.00;78368.91;5061121;28;20054;-85
2021/12/23 04:14:56;;;;;;;20.95;13.57;;;;;;;-144.19;100.00;78366.94;5071107;28;20548;-86
2021/12/23 04:17:23;;;;;;;24.08;13.30;;;;;;;-144.19;100.00;78363.00;5078743;28;20048;-83
2021/12/23 04:19:50;;;;;;;22.63;14.57;;;;;;;-144.19;100.00;78368.91;5084374;28;20052;-82
2021/12/23 04:22:16;;;;;;;;;;;;;;;-144.19;100.00;78351.19;5084563;28;20041;-85
2021/12/23 04:24:43;;;;;;;23.92;14.75;;;;;;;-144.19;100.00;78343.31;5084975;28;19923;-87
2021/12/23 04:27:09;;;;;;;27.05;15.40;;;;;;;-144.19;100.00;78349.22;5072187;28;20513;-82
2021/12/23 04:29:36;;;;;;;23.77;14.13;;;;;;;-144.19;100.00;78339.38;5072554;28;20056;-86
2021/12/23 04:32:03;;;;;;;22.77;13.43;;;;;;;-144.19;100.00;78335.44;5074838;28;20138;-89
2021/12/23 04:34:29;;;;;;;25.48;14.35;;;;;;;-144.19;100.00;78339.38;5069541;28;20053;-87
2021/12/23 04:36:55;;;;;;;24.25;14.63;;;;;;;-144.19;100.00;78341.34;5093212;28;20526;-85
2021/12/23 04:39:22;;;;;;;22.30;14.27;;;;;;;-144.19;100.00;78337.41;5090827;28;20074;-85
2021/12/23 04:41:48;;;;;;;25.08;13.88;;;;;;;-144.19;100.00;78329.53;5092381;28;20063;-86
2021/12/23 04:44:14;;;;;;;24.20;14.82;;;;;;;-144.19;100.00;78290.13;5090790;28;20052;-87
2021/12/23 04:46:41;;;;;;;23.27;14.05;;;;;;;-144.19;100.00;78319.69;5081284;28;20056;-87
2021/12/23 04:49:07;;;;;;;25.52;15.30;;;;;;;-144.19;100.00;78315.75;5050204;28;20578;-86
2021/12/23 04:51:34;;;;;;;;;;;;;;;-144.19;100.00;78323.63;5058529;28;20063;-86
2021/12/23 04:54:01;;;;;;;27.67;16.33;;;;;;;-144.19;100.00;78321.66;5069964;28;19924;-85
2021/12/23 04:56:27;;;;;;;24.70;15.57;;;;;;;-144.19;100.00;78315.75;5071001;28;20422;-86
2021/12/23 04:58:53;;;;;;;24.25;14.57;;;;;;;-144.19;100.00;78296.03;5069439;28;20049;-87
2021/12/23 05:01:26;;;;;;;22.30;14.30;;;;;;;-144.19;100.00;78303.94;5069890;28;20048;-86
2021/12/23 05:03:53;;;;;;;21.38;13.95;;;;;;;-144.19;100.00;78307.88;5069644;28;20088;-87
2021/12/23 05:06:20;;;;;;;21.52;12.63;;;;;;;-144.19;100.00;78307.88;5068909;28;20059;-85
2021/12/23 05:08:46;;;;;;;24.40;14.90;;;;;;;-144.19;100.00;78313.78;5061045;28;20053;-85
2021/12/23 05:11:13;;;;;;;21.98;13.52;;;;;;;-144.19;100.00;78311.81;5049850;28;20053;-86
2021/12/23 05:13:39;;;;;;;20.58;13.45;;;;;;;-144.19;100.00;78309.84;5049492;28;20064;-87
2021/12/23 05:16:06;;;;;;;25.13;15.43;;;;;;;-144.19;100.00;78303.94;5049792;28;20105;-86
2021/12/23 05:18:32;;;;;;;23.80;14.98;;;;;;;-144.19;100.00;78299.97;5050770;28;20048;-85
2021/12/23 05:20:59;;;;;;;23.98;14.23;;;;;;;-144.19;100.00;78301.94;5049459;28;20136;-85
2021/12/23 05:23:25;;;;;;;23.98;15.57;;;;;;;-144.19;100.00;78299.97;5073225;28;20049;-85
2021/12/23 05:25:52;;;;;;;23.92;14.98;;;;;;;-144.19;100.00;78294.06;5059040;28;20541;-87
2021/12/23 05:28:18;;;;;;;26.33;15.70;;;;;;;-144.19;100.00;78290.13;5051511;28;20045;-86
2021/12/23 05:30:44;;;;;;;23.02;13.90;;;;;;;-144.19;100.00;78284.22;5055058;28;20049;-86
2021/12/23 05:33:11;;;;;;;26.70;13.90;;;;;;;-144.19;100.00;78288.16;5054314;28;20059;-87
2021/12/23 05:35:38;;;;;;;24.80;14.85;;;;;;;-144.19;100.00;78284.22;5073615;28;20122;-85
2021/12/23 05:38:04;;;;;;;21.88;13.40;;;;;;;-144.19;100.00;78274.38;5092126;28;20054;-83
2021/12/23 05:40:32;;;;;;;20.73;13.85;;;;;;;-144.19;100.00;78276.34;5094323;28;20055;-85
2021/12/23 05:42:58;;;;;;;25.45;15.05;;;;;;;-144.19;100.00;78268.47;5074609;28;20136;-88
2021/12/23 05:45:24;;;;;;;17.77;11.25;;;;;;;-144.19;100.00;78272.41;5056174;28;20063;-86
2021/12/23 05:47:51;;;;;;;22.92;14.25;;;;;;;-144.19;100.00;78272.41;5056513;28;20041;-84
2021/12/23 05:50:20;;;;;;;23.60;15.30;;;;;;;-144.19;100.00;78280.28;5056387;28;20434;-85
2021/12/23 05:52:46;;;;;;;24.23;15.15;;;;;;;-144.19;100.00;78276.34;5055910;28;20135;-84
2021/12/23 05:55:15;;;;;;;27.02;16.23;;;;;;;-144.19;100.00;78270.44;5063135;28;20049;-87
2021/12/23 05:57:41;;;;;;;25.70;15.90;;;;;;;-144.19;100.00;78268.47;5076019;28;20041;-84
2021/12/23 06:00:16;;;;;;;24.55;14.98;;;;;;;-144.19;100.00;78276.34;5074658;28;20049;-84
2021/12/23 06:02:42;;;;;;;28.23;17.15;;;;;;;-144.19;100.00;78278.31;5075916;28;20045;-83
2021/12/23 06:05:09;;;;;;;28.15;16.15;;;;;;;-144.19;100.00;78272.41;5078416;28;20469;-87
2021/12/23 06:07:36;;;;;;;28.17;16.13;;;;;;;-144.19;100.00;78274.38;5077122;28;20059;-84
2021/12/23 06:10:04;;;;;;;23.35;16.35;;;;;;;-144.19;100.00;78268.47;5076309;28;20056;-84
2021/12/23 06:12:30;;;;;;;26.40;15.35;;;;;;;-144.19;100.00;78276.34;5076745;28;20422;-84
2021/12/23 06:14:56;;;;;;;24.40;15.38;;;;;;;-144.19;100.00;78268.47;5075840;28;20052;-84
2021/12/23 06:17:23;;;;;;;24.45;15.75;;;;;;;-144.19;100.00;78264.53;5074450;28;20060;-85
2021/12/23 06:19:49;;;;;;;24.10;15.90;;;;;;;-144.19;100.00;78264.53;5078528;28;20135;-86
2021/12/23 06:22:18;;;;;;;21.45;13.25;;;;;;;-144.19;100.00;78256.66;5074243;28;20044;-85
2021/12/23 06:24:47;;;;;;;25.90;16.27;;;;;;;-144.19;100.00;78250.75;5094334;28;20521;-85
2021/12/23 06:27:17;;;;;;;25.10;16.73;;;;;;;-144.19;100.00;78256.66;5096405;28;20512;-84
2021/12/23 06:29:45;;;;;;;26.20;17.10;;;;;;;-144.19;100.00;78260.59;5096018;28;20105;-85
2021/12/23 06:32:11;;;;;;;26.80;16.90;;;;;;;-144.19;100.00;78264.53;5097776;28;20048;-85
2021/12/23 06:34:38;;;;;;;27.75;17.20;;;;;;;-144.19;100.00;78268.47;5068084;28;20052;-85
2021/12/23 06:37:05;;;;;;;25.98;16.33;;;;;;;-144.19;100.00;78260.59;5090629;28;20055;-85
2021/12/23 06:39:33;;;;;;;28.67;17.08;;;;;;;-144.19;100.00;78262.56;5090589;28;20040;-84
2021/12/23 06:42:00;;;;;;;27.85;16.58;;;;;;;-144.19;100.00;78264.53;5097170;28;20052;-84
2021/12/23 06:44:27;;;;;;;29.42;16.77;;;;;;;-144.19;100.00;78260.59;5097108;28;20054;-86
2021/12/23 06:46:53;;;;;;;29.17;17.27;;;;;;;-144.19;100.00;78256.66;5096913;28;20422;-82
2021/12/23 06:49:20;;;;;;;28.00;17.15;;;;;;;-144.19;100.00;78248.78;5095174;28;20044;-87
2021/12/23 06:51:46;;;;;;;27.15;17.13;;;;;;;-144.19;100.00;78248.78;5076481;28;20066;-84
2021/12/23 06:54:14;;;;;;;29.60;18.17;;;;;;;-144.19;100.00;78252.72;5074530;28;20052;-85
2021/12/23 06:56:41;;;;;;;30.35;18.38;;;;;;;-144.19;100.00;78252.72;5074127;28;20062;-85
2021/12/23 06:59:07;;;;;;;27.25;18.10;;;;;;;-144.19;100.00;78238.94;5075023;28;20044;-86
2021/12/23 07:01:35;;;;;;;29.38;17.63;;;;;;;-144.19;100.00;78240.91;5076371;28;20056;-84
2021/12/23 07:04:14;;;;;;;30.27;17.80;;;;;;;-144.19;100.00;78229.09;5074054;28;20135;-84
2021/12/23 07:06:47;;;;;;;27.25;16.13;;;;;;;-144.19;100.00;78229.09;5074223;28;20045;-84
2021/12/23 07:09:15;;;;;;;28.02;16.88;;;;;;;-144.19;100.00;78229.09;5053829;28;20055;-83
2021/12/23 07:11:41;;;;;;;26.40;16.92;;;;;;;-144.19;100.00;78229.09;5069640;28;20053;-83
2021/12/23 07:14:07;;;;;;;26.27;16.02;;;;;;;-144.19;100.00;78233.03;5054454;28;20483;-86
2021/12/23 07:16:37;;;;;;;29.27;16.50;;;;;;;-144.19;100.00;78221.22;5070409;28;20052;-84
2021/12/23 07:19:04;;;;;;;27.35;17.48;;;;;;;-144.19;100.00;78201.53;5070341;28;20049;-84
2021/12/23 07:21:31;;;;;;;30.20;19.42;;;;;;;-144.19;100.00;78213.34;5057829;28;20055;-85
2021/12/23 07:23:57;;;;;;;31.90;19.70;;;;;;;-144.19;100.00;78217.28;5074482;28;20510;-85
2021/12/23 07:26:24;;;;;;;32.00;19.55;;;;;;;-144.19;100.00;78213.34;5052490;28;20049;-85
2021/12/23 07:28:50;;;;;;;27.38;16.58;;;;;;;-144.19;100.00;78217.28;5053926;28;20144;-84
2021/12/23 07:31:17;;;;;;;28.88;17.13;;;;;;;-144.19;100.00;78217.28;5054143;28;20053;-86
2021/12/23 07:33:43;;;;;;;32.35;18.38;;;;;;;-144.19;100.00;78215.31;5053460;28;20056;-84
2021/12/23 07:36:10;;;;;;;26.98;17.33;;;;;;;-144.19;100.00;78207.44;5085556;28;20052;-86
2021/12/23 07:38:36;;;;;;;28.52;18.45;;;;;;;-144.19;100.00;78205.47;5093884;28;20062;-85
2021/12/23 07:41:03;;;;;;;28.90;17.63;;;;;;;-144.19;100.00;78197.59;5087962;28;20052;-87
2021/12/23 07:46:03;;;;;;;27.10;16.25;;;;;;;-144.19;100.00;78173.94;5052649;28;20485;-84
2021/12/23 07:48:33;;;;;;;28.40;17.02;;;;;;;-144.19;100.00;78175.94;5050586;28;20495;-85
2021/12/23 07:51:00;;;;;;;24.95;15.40;;;;;;;-144.19;100.00;78144.41;5051180;28;20056;-86
2021/12/23 07:53:27;;;;;;;27.08;14.90;;;;;;;-144.19;100.00;78126.69;5056041;28;20051;-86
2021/12/23 07:55:53;;;;;;;25.35;15.70;;;;;;;-144.19;100.00;78110.94;5064036;28;20053;-84
2021/12/23 07:58:20;;;;;;;20.70;12.20;;;;;;;-144.19;100.00;78107.00;5072319;28;20052;-83
2021/12/23 08:00:46;;;;;;;24.17;15.25;;;;;;;-144.19;100.00;78063.69;5073354;28;20049;-85
2021/12/23 08:03:13;;;;;;;23.63;14.00;;;;;;;-144.19;100.00;78075.50;5071601;28;20056;-87
2021/12/23 08:05:41;;;;;;;25.20;16.02;;;;;;;-144.19;100.00;78069.59;5070844;28;20052;-88
2021/12/23 08:08:07;;;;;;;28.70;15.43;;;;;;;-144.19;100.00;78065.66;5071167;28;20047;-89
2021/12/23 08:10:34;;;;;;;26.50;14.68;;;;;;;-144.19;100.00;78032.19;5068397;28;20483;-89
2021/12/23 08:13:01;;;;;;;26.20;15.13;;;;;;;-144.19;100.00;78030.22;5056646;28;20056;-88
2021/12/23 08:15:27;;;;;;;;;;;;;;;-144.19;100.00;78034.16;5071613;28;20139;-87
2021/12/23 08:17:54;;;;;;;21.63;15.15;;;;;;;-144.19;100.00;78018.38;5070145;28;19957;-89
2021/12/23 08:20:34;;;;;;;29.48;16.35;;;;;;;-144.19;100.00;78004.59;5072492;28;20054;-90
2021/12/23 08:23:01;;;;;;;29.45;16.48;;;;;;;-144.19;100.00;78000.66;5079637;28;20934;-90
2021/12/23 08:25:28;;;;;;;30.20;16.02;;;;;;;-144.19;100.00;77988.84;5089360;28;20067;-87
2021/12/23 08:27:54;;;;;;;25.40;15.48;;;;;;;-144.19;100.00;77975.06;5090973;28;20058;-89
2021/12/23 08:30:21;;;;;;;25.38;15.90;;;;;;;-144.19;100.00;77967.19;5072732;28;20063;-87
2021/12/23 08:32:49;;;;;;;29.13;16.88;;;;;;;-144.19;100.00;77949.47;5071300;28;20098;-86
2021/12/23 08:35:16;;;;;;;;;;;;;;;-144.19;100.00;77953.41;5080118;28;20048;-87
2021/12/23 08:37:45;;;;;;;28.02;16.95;;;;;;;-144.19;100.00;77937.66;5077456;28;20003;-88
2021/12/23 08:40:21;;;;;;;30.55;17.35;;;;;;;-144.19;100.00;77941.59;5074155;28;20048;-87
2021/12/23 08:42:49;;;;;;;30.75;18.40;;;;;;;-144.19;100.00;77945.53;5078482;28;20471;-87
2021/12/23 08:45:17;;;;;;;32.40;18.60;;;;;;;-144.19;100.00;77937.66;5077562;28;20051;-85
2021/12/23 08:47:43;;;;;;;31.10;18.27;;;;;;;-144.19;100.00;77943.56;5080417;28;20056;-84
2021/12/23 08:50:12;;;;;;;31.38;18.92;;;;;;;-144.19;100.00;77939.63;5078633;28;20084;-85
2021/12/23 08:52:39;;;;;;;32.33;18.35;;;;;;;-144.19;100.00;77945.53;5080349;28;20048;-85
2021/12/23 08:55:07;;;;;;;31.67;18.92;;;;;;;-144.19;100.00;77937.66;5077649;28;20098;-86
2021/12/23 08:57:33;;;;;;;35.70;20.05;;;;;;;-144.19;100.00;77947.50;5081323;28;20052;-81
2021/12/23 09:00:00;;;;;;;34.53;20.33;;;;;;;-144.19;100.00;77945.53;5082295;28;20051;-85
2021/12/23 09:02:27;;;;;;;31.65;18.75;;;;;;;-144.19;100.00;77957.34;5076629;28;20048;-83
2021/12/23 09:04:54;;;;;;;31.90;17.38;;;;;;;-144.19;100.00;77935.69;5079275;28;20139;-87
2021/12/23 09:07:21;;;;;;;30.83;18.33;;;;;;;-144.19;100.00;77949.47;5074525;28;20413;-87
2021/12/23 09:09:50;;;;;;;31.33;19.50;;;;;;;-144.19;100.00;77941.59;5069245;28;20056;-87
2021/12/23 09:12:19;;;;;;;34.22;19.63;;;;;;;-144.19;100.00;77929.78;5070278;28;20048;-87
2021/12/23 09:14:46;;;;;;;32.10;19.48;;;;;;;-144.19;100.00;77921.91;5072833;28;20554;-86
2021/12/23 09:17:13;;;;;;;37.80;20.20;;;;;;;-144.19;100.00;77927.81;5079889;28;20048;-86
2021/12/23 09:19:40;;;;;;;39.78;19.88;;;;;;;-144.19;100.00;77921.91;5080824;28;20510;-84
2021/12/23 09:22:08;;;;;;;29.80;18.02;;;;;;;-144.19;100.00;77925.84;5081310;28;20052;-84
2021/12/23 09:24:37;;;;;;;34.83;19.50;;;;;;;-144.19;100.00;77914.03;5083461;28;20395;-83
2021/12/23 09:27:24;;;;;;;37.63;21.10;;;;;;;-144.19;100.00;77921.91;5090542;28;20065;-86
2021/12/23 09:35:03;;;;;;;34.33;19.45;;;;;;;-144.19;100.00;77912.06;5089513;28;19926;-85
2021/12/23 09:37:30;;;;;;;38.25;21.80;;;;;;;-144.19;100.00;77902.22;5086418;28;20135;-85
2021/12/23 09:39:58;;;;;;;35.72;20.15;;;;;;;-144.19;100.00;77906.16;5087970;28;20064;-84
2021/12/23 09:42:34;;;;;;;39.55;21.42;;;;;;;-144.19;100.00;77888.44;5078889;28;20040;-86
2021/12/23 09:45:05;;;;;;;40.15;20.90;;;;;;;-144.19;100.00;77878.59;5082925;28;20138;-83
2021/12/23 09:47:34;;;;;;;34.83;19.42;;;;;;;-144.19;100.00;77878.59;5085769;28;20504;-83
2021/12/23 09:50:05;;;;;;;39.40;23.52;;;;;;;-144.19;100.00;77878.59;5081390;28;20055;-84
2021/12/23 09:52:34;;;;;;;38.60;20.30;;;;;;;-144.19;100.00;77874.66;5082138;28;20059;-84
2021/12/23 09:55:02;;;;;;;39.47;22.45;;;;;;;-144.19;100.00;77878.59;5076404;28;20135;-85
2021/12/23 09:57:29;;;;;;;35.85;19.83;;;;;;;-144.19;100.00;77868.75;5075787;28;20053;-84
2021/12/23 09:59:57;;;;;;;33.15;20.40;;;;;;;-144.19;100.00;77866.78;5073890;28;20040;-84
2021/12/23 10:02:24;;;;;;;41.20;21.13;;;;;;;-144.19;100.00;77858.91;5091289;28;20059;-81
2021/12/23 10:04:50;;;;;;;;;;;;;;;-144.19;100.00;77854.97;5088737;28;20059;-84
2021/12/23 10:07:18;;;;;;;34.22;20.45;;;;;;;-144.19;100.00;77868.75;5078221;28;20239;-83
2021/12/23 10:09:57;;;;;;;39.25;20.92;;;;;;;-144.19;100.00;77860.88;5083579;28;20069;-82
2021/12/23 10:13:09;;;;;;;39.22;21.38;;;;;;;-144.19;100.00;77847.09;5087814;28;20678;-84
2021/12/23 10:38:49;;;;;;;45.28;23.35;;;;;;;-144.19;100.00;77799.81;5081191;28;20048;-87
2021/12/23 10:41:23;;;;;;;36.80;22.13;;;;;;;-144.19;100.00;77795.88;5081016;28;20052;-85
2021/12/23 10:43:58;;;;;;;41.05;24.35;;;;;;;-144.19;100.00;77784.06;5083861;28;20048;-84
2021/12/23 10:46:27;;;;;;;39.45;21.95;;;;;;;-144.19;100.00;77778.16;5079163;28;20054;-86
2021/12/23 10:52:02;;;;;;;43.60;24.63;;;;;;;-144.19;100.00;77768.31;5080422;28;20059;-88
2021/12/23 11:00:27;;;;;;;43.60;23.30;;;;;;;-144.19;100.00;77752.56;5079124;28;20047;-84
2021/12/23 11:03:12;;;;;;;43.15;21.65;;;;;;;-144.19;100.00;77756.50;5080848;28;20105;-86
2021/12/23 11:05:46;;;;;;;40.40;23.67;;;;;;;-144.19;100.00;77728.94;5079885;28;20418;-87
2021/12/23 11:08:24;;;;;;;45.80;25.13;;;;;;;-144.19;100.00;77736.81;5081711;28;20043;-89
2021/12/23 11:30:47;;;;;;;42.78;22.38;;;;;;;-144.19;100.00;77681.69;5076867;28;20045;-86
2021/12/23 11:41:32;;;;;;;50.78;27.15;;;;;;;-144.19;100.00;77669.88;5075326;28;20060;-86
2021/12/23 11:44:01;;;;;;;46.92;25.83;;;;;;;-144.19;100.00;77650.19;5076367;28;20044;-86
2021/12/23 11:46:36;;;;;;;50.63;27.20;;;;;;;-144.19;100.00;77656.09;5078910;28;20050;-86
2021/12/23 11:49:07;;;;;;;45.25;25.50;;;;;;;-144.19;100.00;77667.91;5081859;28;20041;-85
2021/12/23 11:51:47;;;;;;;38.45;21.25;;;;;;;-144.19;100.00;77673.81;5075769;28;20683;-89
2021/12/23 11:54:17;;;;;;;50.17;26.27;;;;;;;-144.19;100.00;77689.56;5075163;28;20127;-86
2021/12/23 11:56:55;;;;;;;44.97;24.55;;;;;;;-144.19;100.00;77665.94;5077629;28;20135;-86
2021/12/23 11:59:22;;;;;;;44.45;23.15;;;;;;;-144.19;100.00;77660.03;5085876;28;20071;-87
2021/12/23 12:01:54;;;;;;;45.92;24.15;;;;;;;-144.19;100.00;77662.00;5082505;28;20052;-86
2021/12/23 12:04:35;;;;;;;53.83;27.92;;;;;;;-144.19;100.00;77652.16;5076633;28;20520;-87
2021/12/23 12:07:12;;;;;;;47.13;26.67;;;;;;;-144.19;100.00;77634.44;5082472;28;20048;-88
2021/12/23 12:09:54;;;;;;;54.53;28.17;;;;;;;-144.19;100.00;77632.47;5089261;28;20048;-87
2021/12/23 12:12:20;;;;;;;48.78;27.08;;;;;;;-144.19;100.00;77634.44;5082954;28;20044;-89
2021/12/23 12:14:47;;;;;;;55.17;27.45;;;;;;;-144.19;100.00;77614.75;5078482;28;20045;-85
2021/12/23 12:17:25;;;;;;;53.70;30.95;;;;;;;-144.19;100.00;77602.94;5082830;28;20055;-88